Time;durP1;ratioP1;P1;durP2;ratioP2;P2;SDS_P1;SDS_P2;PMS_P1;PMS_P2;Temp;Humidity;BMP_temperature;BMP_pressure;BME280_temperature;BME280_humidity;BME280_pressure;Samples;Min_cycle;Max_cycle;Signal;HPM_P1;HPM_P2
2023/01/17 00:01:27;;;;;;;4.60;4.30;;;;;;;0.90;100.00;94000.50;5072342;28;20170;-59
2023/01/17 00:12:05;;;;;;;3.97;3.77;;;;;;;0.46;100.00;93996.19;5073048;28;20208;-61
2023/01/17 00:14:33;;;;;;;4.37;4.17;;;;;;;0.33;100.00;94012.72;5073516;28;20172;-62
2023/01/17 00:17:01;;;;;;;4.50;3.97;;;;;;;0.30;100.00;94008.81;5073520;28;20310;-61
2023/01/17 01:34:59;;;;;;;4.13;3.93;;;;;;;0.90;100.00;94087.38;5071487;28;20207;-58
2023/01/17 01:37:25;;;;;;;3.77;3.63;;;;;;;0.87;100.00;94082.69;5071863;28;20197;-59
2023/01/17 01:39:50;;;;;;;4.07;3.77;;;;;;;0.83;100.00;94074.66;5071254;28;20590;-60
2023/01/17 01:42:16;;;;;;;4.07;3.80;;;;;;;0.88;100.00;94074.72;5085791;28;20181;-62
2023/01/17 01:44:50;;;;;;;4.37;4.07;;;;;;;0.88;100.00;94079.88;5086712;28;20200;-59
2023/01/17 01:47:25;;;;;;;4.47;4.27;;;;;;;0.93;100.00;94087.69;5071776;28;20189;-60
2023/01/17 01:49:51;;;;;;;4.10;3.83;;;;;;;0.90;100.00;94083.00;5071858;28;20306;-60
2023/01/17 01:52:19;;;;;;;4.17;3.97;;;;;;;0.87;100.00;94085.25;5053702;28;20296;-59
2023/01/17 01:54:56;;;;;;;3.80;3.60;;;;;;;0.95;100.00;94083.06;5072165;28;20242;-60
2023/01/17 01:57:25;;;;;;;4.10;3.90;;;;;;;0.90;100.00;94085.56;5072353;28;20212;-60
2023/01/17 01:59:56;;;;;;;5.13;4.03;;;;;;;0.98;100.00;94082.63;5072745;28;20251;-60
2023/01/17 02:02:22;;;;;;;4.30;4.10;;;;;;;1.01;100.00;94081.34;5075472;28;20282;-60
2023/01/17 02:04:48;;;;;;;4.53;4.23;;;;;;;0.95;100.00;94085.66;5075547;28;20193;-60
2023/01/17 02:07:20;;;;;;;4.40;4.17;;;;;;;0.93;100.00;94085.13;5075411;28;20174;-58
2023/01/17 02:09:46;;;;;;;4.60;4.23;;;;;;;0.94;100.00;94086.69;5075926;28;20532;-60
2023/01/17 02:12:11;;;;;;;4.60;4.30;;;;;;;0.98;100.00;94077.47;5075510;28;20208;-57
2023/01/17 02:14:37;;;;;;;4.17;3.97;;;;;;;1.03;100.00;94077.53;5075317;28;20174;-63
2023/01/17 02:17:19;;;;;;;4.80;4.40;;;;;;;1.00;100.00;94079.81;5074866;28;20184;-62
2023/01/17 02:20:22;;;;;;;4.50;4.30;;;;;;;0.99;100.00;94071.28;5075536;28;20169;-62
2023/01/17 02:23:16;;;;;;;6.77;4.07;;;;;;;0.96;100.00;94076.91;5075217;28;20193;-60
2023/01/17 02:26:05;;;;;;;4.73;4.00;;;;;;;1.12;100.00;94065.03;5075332;28;20193;-59
2023/01/17 02:28:55;;;;;;;5.00;4.60;;;;;;;1.06;100.00;94071.16;5075171;28;20189;-60
2023/01/17 02:31:35;;;;;;;4.10;3.90;;;;;;;0.99;100.00;94073.09;5060565;28;20173;-58
2023/01/17 02:34:19;;;;;;;3.77;3.57;;;;;;;0.99;100.00;94084.19;5056752;28;20723;-60
2023/01/17 02:36:59;;;;;;;4.00;3.80;;;;;;;0.92;100.00;94075.03;5075045;28;20560;-60
2023/01/17 02:39:38;;;;;;;3.90;3.70;;;;;;;0.94;100.00;94068.63;5074356;28;20726;-59
2023/01/17 02:42:09;;;;;;;4.10;3.90;;;;;;;0.97;100.00;94073.31;5074732;28;20196;-60
2023/01/17 02:44:42;;;;;;;4.03;3.80;;;;;;;1.03;100.00;94071.59;5074625;28;20204;-59
2023/01/17 02:47:26;;;;;;;4.93;4.63;;;;;;;1.05;100.00;94072.94;5060318;28;20231;-60
2023/01/17 02:49:55;;;;;;;4.87;4.47;;;;;;;1.06;100.00;94069.31;5074643;28;20181;-60
2023/01/17 02:52:33;;;;;;;5.20;4.80;;;;;;;1.01;100.00;94071.03;5074689;28;20205;-60
2023/01/17 02:55:01;;;;;;;4.70;4.40;;;;;;;1.00;100.00;94070.28;5074764;28;20256;-60
2023/01/17 02:57:53;;;;;;;4.30;4.00;;;;;;;1.04;100.00;94065.44;5074206;28;20266;-60
2023/01/17 03:00:37;;;;;;;4.77;4.23;;;;;;;0.98;100.00;94064.56;5071063;28;20260;-60
2023/01/17 03:03:12;;;;;;;4.60;4.30;;;;;;;0.96;100.00;94056.28;5074494;28;20205;-60
2023/01/17 03:05:45;;;;;;;4.77;4.37;;;;;;;0.97;100.00;94051.91;5074184;28;20602;-60
2023/01/17 03:08:12;;;;;;;4.73;4.43;;;;;;;1.04;100.00;94049.97;5074254;28;20169;-59
2023/01/17 03:10:43;;;;;;;4.60;4.40;;;;;;;0.93;100.00;94053.41;5074306;28;20248;-60
2023/01/17 03:13:09;;;;;;;5.30;4.90;;;;;;;0.89;100.00;94058.25;5074199;28;20193;-60
2023/01/17 03:15:35;;;;;;;4.70;4.40;;;;;;;0.91;100.00;94058.78;5074337;28;20531;-60
2023/01/17 03:18:06;;;;;;;4.70;4.40;;;;;;;0.94;100.00;94060.13;5074394;28;20169;-60
2023/01/17 03:20:31;;;;;;;4.67;4.33;;;;;;;0.97;100.00;94062.22;5074441;28;20184;-59
2023/01/17 03:22:57;;;;;;;5.07;4.67;;;;;;;0.92;100.00;94064.72;5073917;28;20565;-60
2023/01/17 03:25:22;;;;;;;4.87;4.47;;;;;;;1.02;100.00;94065.66;5074082;28;20346;-60
2023/01/17 03:27:47;;;;;;;6.87;4.50;;;;;;;1.12;100.00;94073.53;5073914;28;20184;-60
2023/01/17 03:30:13;;;;;;;5.33;4.67;;;;;;;1.00;100.00;94075.44;5074155;28;20184;-60
2023/01/17 03:32:38;;;;;;;5.30;4.13;;;;;;;0.99;100.00;94080.81;5073510;28;20193;-63
2023/01/17 03:35:04;;;;;;;4.60;4.20;;;;;;;1.09;100.00;94073.25;5055431;28;20178;-60
2023/01/17 03:37:30;;;;;;;4.80;4.50;;;;;;;1.03;100.00;94076.75;5073638;28;20180;-60
2023/01/17 03:39:55;;;;;;;4.97;4.60;;;;;;;1.02;100.00;94068.22;5073318;28;20265;-59
2023/01/17 03:42:20;;;;;;;4.43;4.13;;;;;;;1.06;100.00;94066.00;5073859;28;20201;-62
2023/01/17 03:44:46;;;;;;;4.30;3.93;;;;;;;1.03;100.00;94069.81;5055292;28;20196;-60
2023/01/17 03:47:11;;;;;;;4.90;4.50;;;;;;;0.98;100.00;94071.53;5073687;28;20276;-57
2023/01/17 03:49:38;;;;;;;4.70;4.23;;;;;;;1.01;100.00;94071.03;5073589;28;20189;-63
2023/01/17 03:52:04;;;;;;;4.90;4.60;;;;;;;0.89;100.00;94067.78;5073504;28;20689;-58
2023/01/17 03:54:29;;;;;;;5.47;4.30;;;;;;;0.91;100.00;94076.03;5055750;28;20180;-53
2023/01/17 03:56:55;;;;;;;5.13;4.70;;;;;;;0.89;100.00;94078.88;5072123;28;20185;-57
2023/01/17 03:59:20;;;;;;;4.47;4.27;;;;;;;0.74;100.00;94089.69;5070882;28;20217;-58
2023/01/17 04:01:46;;;;;;;4.23;4.03;;;;;;;1.00;100.00;94093.50;5073273;28;20213;-57
2023/01/17 04:04:11;;;;;;;4.93;4.57;;;;;;;1.04;100.00;94099.75;5073188;28;20225;-59
2023/01/17 04:06:36;;;;;;;4.90;4.60;;;;;;;0.82;100.00;94083.38;5073050;28;20606;-57
2023/01/17 04:09:03;;;;;;;4.67;4.37;;;;;;;0.74;100.00;94089.69;5072933;28;20217;-56
2023/01/17 04:11:28;;;;;;;6.03;4.23;;;;;;;0.69;100.00;94089.59;5073247;28;20265;-53
2023/01/17 04:13:54;;;;;;;4.80;4.50;;;;;;;0.58;100.00;94094.81;5073651;28;20188;-59
2023/01/17 04:16:24;;;;;;;5.00;4.53;;;;;;;0.63;100.00;94098.25;5072880;28;20173;-59
2023/01/17 04:18:50;;;;;;;5.00;4.40;;;;;;;0.81;100.00;94092.13;5073043;28;20223;-58
2023/01/17 04:21:15;;;;;;;5.23;4.83;;;;;;;0.77;100.00;94094.41;5072366;28;20185;-59
2023/01/17 04:23:40;;;;;;;4.60;4.30;;;;;;;0.83;100.00;94087.53;5073380;28;20209;-58
2023/01/17 04:26:06;;;;;;;5.10;4.80;;;;;;;0.84;100.00;94083.91;5072415;28;20209;-56
2023/01/17 04:28:31;;;;;;;5.10;4.60;;;;;;;0.81;100.00;94085.19;5073084;28;20181;-58
2023/01/17 04:30:58;;;;;;;5.37;4.97;;;;;;;0.71;100.00;94074.72;5072731;28;20177;-58
2023/01/17 04:33:23;;;;;;;5.63;5.23;;;;;;;0.69;100.00;94074.16;5072538;28;20258;-57
2023/01/17 04:35:51;;;;;;;5.20;4.80;;;;;;;0.61;100.00;94084.06;5073264;28;20169;-59
2023/01/17 04:38:16;;;;;;;5.13;4.77;;;;;;;0.66;100.00;94079.00;5072631;28;20180;-58
2023/01/17 04:40:41;;;;;;;5.70;5.13;;;;;;;0.71;100.00;94086.81;5072197;28;20238;-59
2023/01/17 04:43:07;;;;;;;4.77;4.47;;;;;;;0.76;100.00;94086.88;5054694;28;20232;-59
2023/01/17 04:45:32;;;;;;;5.00;4.60;;;;;;;0.69;100.00;94094.75;5072418;28;20299;-59
2023/01/17 04:48:04;;;;;;;5.03;4.63;;;;;;;0.78;100.00;94093.38;5072366;28;20234;-59
2023/01/17 04:50:31;;;;;;;4.63;4.33;;;;;;;0.73;100.00;94087.34;5054717;28;20231;-57
2023/01/17 04:52:57;;;;;;;4.57;4.37;;;;;;;0.83;100.00;94097.84;5072651;28;20649;-60
2023/01/17 04:55:23;;;;;;;4.73;4.33;;;;;;;0.82;100.00;94098.84;5072637;28;20265;-60
2023/01/17 04:57:48;;;;;;;4.83;4.53;;;;;;;0.89;100.00;94090.97;5072590;28;20705;-60
2023/01/17 05:00:14;;;;;;;4.73;4.43;;;;;;;0.87;100.00;94098.94;5069841;28;20582;-59
2023/01/17 05:02:40;;;;;;;5.30;4.90;;;;;;;0.88;100.00;94097.16;5073055;28;20723;-60
2023/01/17 05:05:06;;;;;;;4.67;4.27;;;;;;;0.90;100.00;94102.84;5072382;28;20204;-57
2023/01/17 05:07:31;;;;;;;4.60;4.40;;;;;;;0.94;100.00;94093.63;5072747;28;20177;-60
2023/01/17 05:09:59;;;;;;;4.63;4.33;;;;;;;0.91;100.00;94094.09;5072835;28;20174;-60
2023/01/17 05:12:26;;;;;;;4.37;4.07;;;;;;;0.90;100.00;94093.31;5072229;28;20267;-59
2023/01/17 05:14:51;;;;;;;4.33;3.97;;;;;;;0.87;100.00;94091.19;5072336;28;20621;-63
2023/01/17 05:17:17;;;;;;;4.47;4.07;;;;;;;0.92;100.00;94096.44;5072221;28;20219;-60
2023/01/17 05:19:42;;;;;;;4.70;4.30;;;;;;;0.89;100.00;94096.13;5072722;28;20185;-60
2023/01/17 05:22:13;;;;;;;4.60;4.30;;;;;;;0.86;100.00;94092.22;5072296;28;20283;-60
2023/01/17 05:24:40;;;;;;;4.07;3.77;;;;;;;0.87;100.00;94096.38;5072532;28;20194;-60
2023/01/17 05:27:06;;;;;;;4.47;4.00;;;;;;;0.83;100.00;94087.53;5072577;28;20177;-60
2023/01/17 05:29:31;;;;;;;4.47;4.07;;;;;;;0.95;100.00;94085.66;5072297;28;20555;-60
2023/01/17 05:31:56;;;;;;;4.40;4.20;;;;;;;0.92;100.00;94087.91;5071890;28;20201;-61
2023/01/17 05:34:22;;;;;;;4.17;3.87;;;;;;;0.90;100.00;94083.00;5076333;28;20645;-60
2023/01/17 05:36:47;;;;;;;5.10;4.70;;;;;;;0.87;100.00;94083.47;5076194;28;20177;-59
2023/01/17 05:39:13;;;;;;;5.30;4.47;;;;;;;1.01;100.00;94087.28;5075681;28;20657;-59
2023/01/17 05:41:38;;;;;;;5.00;4.30;;;;;;;0.91;100.00;94094.09;5076111;28;20205;-60
2023/01/17 05:44:04;;;;;;;4.20;3.90;;;;;;;0.91;100.00;94094.09;5075752;28;20181;-60
2023/01/17 05:46:29;;;;;;;4.73;4.33;;;;;;;0.83;100.00;94096.06;5075891;28;20177;-60
2023/01/17 05:48:54;;;;;;;4.30;4.00;;;;;;;0.91;100.00;94097.44;5075872;28;20264;-60
2023/01/17 05:51:20;;;;;;;4.70;4.40;;;;;;;0.86;100.00;94092.22;5075808;28;20209;-59
2023/01/17 05:53:45;;;;;;;5.20;4.90;;;;;;;0.74;100.00;94081.97;5075764;28;20208;-60
2023/01/17 05:56:10;;;;;;;4.67;4.37;;;;;;;0.82;100.00;94085.97;5075298;28;20181;-59
2023/01/17 05:58:36;;;;;;;4.73;4.40;;;;;;;0.80;100.00;94075.09;5073386;28;20240;-59
2023/01/17 06:01:01;;;;;;;4.70;4.40;;;;;;;0.81;100.00;94076.66;5057651;28;20276;-60
2023/01/17 06:03:27;;;;;;;5.67;4.47;;;;;;;0.78;100.00;94074.56;5075371;28;20212;-59
2023/01/17 06:05:52;;;;;;;4.77;4.47;;;;;;;0.67;100.00;94060.69;5075432;28;20724;-60
2023/01/17 06:08:17;;;;;;;4.50;4.10;;;;;;;0.57;100.00;94052.81;5075410;28;20233;-59
2023/01/17 06:10:43;;;;;;;5.40;5.00;;;;;;;0.52;100.00;94050.13;5075449;28;20645;-60
2023/01/17 06:13:11;;;;;;;5.03;4.63;;;;;;;0.45;100.00;94056.47;5075245;28;20284;-59
2023/01/17 06:15:37;;;;;;;5.87;5.47;;;;;;;0.46;100.00;94048.47;5075564;28;20574;-60
2023/01/17 06:18:07;;;;;;;5.83;5.33;;;;;;;0.40;100.00;94039.88;5057883;28;20166;-60
2023/01/17 06:20:33;;;;;;;5.47;5.07;;;;;;;0.37;100.00;94037.00;5075496;28;20200;-60
2023/01/17 06:23:04;;;;;;;5.33;4.83;;;;;;;0.29;100.00;94029.63;5075313;28;20247;-60
2023/01/17 06:25:34;;;;;;;5.50;4.63;;;;;;;0.20;100.00;94031.03;5075116;28;20681;-60
2023/01/17 06:28:00;;;;;;;6.10;5.60;;;;;;;0.14;100.00;94027.56;5076027;28;20538;-57
2023/01/17 06:30:26;;;;;;;6.87;5.10;;;;;;;0.23;100.00;94027.97;5075594;28;20173;-59
2023/01/17 06:32:53;;;;;;;12.63;6.77;;;;;;;0.16;100.00;94019.63;5074726;28;20224;-60
2023/01/17 06:35:20;;;;;;;6.70;6.10;;;;;;;0.12;100.00;94021.88;5075416;28;20631;-60
2023/01/17 06:37:48;;;;;;;9.07;5.97;;;;;;;0.12;100.00;94018.50;5075036;28;20178;-59
2023/01/17 06:40:14;;;;;;;6.03;5.40;;;;;;;0.12;100.00;94023.66;5074652;28;20271;-60
2023/01/17 06:42:39;;;;;;;5.53;5.13;;;;;;;0.16;100.00;94024.78;5074733;28;20316;-60
2023/01/17 06:45:05;;;;;;;5.33;4.93;;;;;;;0.14;100.00;94019.84;5074439;28;20201;-60
2023/01/17 06:47:31;;;;;;;4.83;4.63;;;;;;;0.13;100.00;94031.16;5075212;28;20177;-59
2023/01/17 06:49:56;;;;;;;5.00;4.70;;;;;;;0.16;100.00;94037.66;5074379;28;20633;-60
2023/01/17 06:52:21;;;;;;;5.40;5.03;;;;;;;0.15;100.00;94033.50;5074699;28;20211;-60
2023/01/17 06:54:47;;;;;;;5.50;5.13;;;;;;;0.10;100.00;94036.00;5074742;28;20191;-59
2023/01/17 06:57:12;;;;;;;5.60;5.30;;;;;;;0.11;100.00;94038.34;5074665;28;20185;-60
2023/01/17 06:59:38;;;;;;;5.17;4.87;;;;;;;0.19;100.00;94032.03;5071432;28;20298;-61
2023/01/17 07:02:03;;;;;;;5.07;4.67;;;;;;;0.26;100.00;94035.25;5074675;28;20209;-62
2023/01/17 07:04:28;;;;;;;6.03;5.07;;;;;;;0.29;100.00;94032.22;5074527;28;20292;-60
2023/01/17 07:06:54;;;;;;;4.83;4.53;;;;;;;0.33;100.00;94030.75;5074764;28;20169;-58
2023/01/17 07:09:19;;;;;;;5.20;4.90;;;;;;;0.32;100.00;94029.19;5075371;28;20173;-57
2023/01/17 07:11:45;;;;;;;5.03;4.73;;;;;;;0.31;100.00;94019.88;5075369;28;20240;-59
2023/01/17 07:14:12;;;;;;;18.60;17.53;;;;;;;0.33;100.00;94021.25;5074486;28;20169;-58
2023/01/17 07:16:37;;;;;;;4.87;4.57;;;;;;;0.30;100.00;94023.47;5073878;28;20177;-60
2023/01/17 07:19:03;;;;;;;5.67;5.17;;;;;;;0.39;100.00;94015.13;5074583;28;20182;-54
2023/01/17 07:21:28;;;;;;;5.57;5.17;;;;;;;0.54;100.00;94019.78;5074287;28;20166;-58
2023/01/17 07:23:54;;;;;;;5.37;4.97;;;;;;;0.62;100.00;94016.03;5074062;28;20170;-58
2023/01/17 07:26:19;;;;;;;6.50;5.70;;;;;;;0.65;100.00;94011.19;5073633;28;20174;-58
2023/01/17 07:28:45;;;;;;;5.50;5.00;;;;;;;0.77;100.00;94011.13;5073585;28;20184;-55
2023/01/17 07:31:10;;;;;;;5.23;4.83;;;;;;;0.79;100.00;94009.09;5073558;28;20173;-58
2023/01/17 07:33:36;;;;;;;5.90;5.00;;;;;;;0.74;100.00;93991.75;5073693;28;20689;-56
2023/01/17 07:36:06;;;;;;;6.00;5.47;;;;;;;0.89;100.00;93993.00;5074238;28;20218;-58
2023/01/17 07:38:31;;;;;;;6.40;5.90;;;;;;;0.82;100.00;93980.28;5074063;28;20219;-58
2023/01/17 07:40:58;;;;;;;5.63;5.20;;;;;;;0.91;100.00;93994.31;5057906;28;20189;-58
2023/01/17 07:43:24;;;;;;;7.13;6.53;;;;;;;0.90;100.00;93989.41;5075353;28;20234;-55
2023/01/17 07:45:49;;;;;;;6.57;5.90;;;;;;;0.98;100.00;93981.28;5075181;28;20286;-55
2023/01/17 07:48:16;;;;;;;8.30;6.27;;;;;;;1.05;100.00;93977.53;5075361;28;20201;-55
2023/01/17 07:50:42;;;;;;;6.97;6.37;;;;;;;1.14;100.00;93981.25;5075470;28;20185;-55
2023/01/17 07:53:07;;;;;;;5.97;5.47;;;;;;;1.04;100.00;93977.75;5074048;28;20558;-58
2023/01/17 07:55:33;;;;;;;5.53;5.03;;;;;;;0.91;100.00;93978.06;5072668;28;20183;-58
2023/01/17 07:57:59;;;;;;;6.83;5.03;;;;;;;0.90;100.00;93976.50;5072130;28;20181;-56
2023/01/17 08:00:26;;;;;;;6.13;5.53;;;;;;;0.95;100.00;93974.03;5071826;28;20215;-58
2023/01/17 08:02:56;;;;;;;5.00;4.70;;;;;;;0.87;100.00;93979.56;5073240;28;20227;-58
2023/01/17 08:05:22;;;;;;;5.67;5.20;;;;;;;0.81;100.00;93982.06;5073515;28;20205;-52
2023/01/17 08:07:47;;;;;;;5.53;5.00;;;;;;;0.81;100.00;93986.44;5072960;28;20173;-54
2023/01/17 08:10:16;;;;;;;6.43;5.70;;;;;;;0.76;100.00;93987.16;5073708;28;20177;-55
2023/01/17 08:12:43;;;;;;;6.50;5.90;;;;;;;0.77;100.00;93988.72;5055027;28;20573;-59
2023/01/17 08:15:09;;;;;;;6.60;6.10;;;;;;;0.90;100.00;93984.25;5072932;28;20257;-57
2023/01/17 08:17:35;;;;;;;5.33;4.90;;;;;;;0.97;100.00;93992.59;5073622;28;20256;-56
2023/01/17 08:20:01;;;;;;;5.30;4.90;;;;;;;1.07;100.00;93990.16;5073583;28;20192;-56
2023/01/17 08:22:29;;;;;;;5.57;5.17;;;;;;;1.14;100.00;93990.78;5063614;28;20200;-54
2023/01/17 08:24:54;;;;;;;5.20;4.80;;;;;;;1.17;100.00;93990.34;5072883;28;20207;-56
2023/01/17 08:27:20;;;;;;;6.00;5.50;;;;;;;1.19;100.00;93991.63;5072417;28;20633;-56
2023/01/17 08:29:47;;;;;;;5.77;5.20;;;;;;;1.29;100.00;93985.81;5072455;28;20181;-55
2023/01/17 08:32:15;;;;;;;7.17;5.00;;;;;;;1.43;100.00;93987.06;5072671;28;20192;-54
2023/01/17 08:34:41;;;;;;;5.57;5.10;;;;;;;1.45;100.00;93995.31;5055749;28;20211;-53
2023/01/17 08:37:06;;;;;;;5.90;5.40;;;;;;;1.31;100.00;93994.13;5073560;28;20231;-56
2023/01/17 08:39:33;;;;;;;6.60;5.97;;;;;;;1.40;100.00;93994.47;5072447;28;20661;-55
2023/01/17 08:41:58;;;;;;;7.03;6.60;;;;;;;1.41;100.00;93986.50;5071811;28;20197;-55
2023/01/17 08:44:23;;;;;;;8.37;7.67;;;;;;;1.57;100.00;93990.84;5072901;28;20246;-54
2023/01/17 08:46:49;;;;;;;10.53;7.67;;;;;;;1.64;100.00;93990.66;5072743;28;20219;-56
2023/01/17 08:49:15;;;;;;;7.37;6.77;;;;;;;1.51;100.00;93991.00;5054624;28;20217;-54
2023/01/17 08:51:40;;;;;;;9.13;7.33;;;;;;;1.62;100.00;93979.78;5072098;28;20188;-55
2023/01/17 08:54:06;;;;;;;9.23;7.47;;;;;;;1.70;100.00;93979.38;5072547;28;20325;-55
2023/01/17 08:56:31;;;;;;;7.83;6.57;;;;;;;1.62;100.00;93978.00;5072190;28;20230;-53
2023/01/17 08:58:57;;;;;;;6.97;6.13;;;;;;;1.72;100.00;93979.94;5070523;28;20224;-54
2023/01/17 09:01:22;;;;;;;6.30;5.80;;;;;;;1.74;100.00;93977.88;5071714;28;20185;-58
2023/01/17 09:03:50;;;;;;;6.97;5.97;;;;;;;1.76;100.00;93970.69;5054150;28;20220;-54
2023/01/17 09:06:16;;;;;;;8.43;6.57;;;;;;;1.73;100.00;93973.72;5073849;28;20569;-53
2023/01/17 09:08:45;;;;;;;11.87;7.80;;;;;;;1.88;100.00;93970.56;5079416;28;20172;-56
2023/01/17 09:11:13;;;;;;;11.07;6.97;;;;;;;2.05;100.00;93963.50;5078899;28;20173;-54
2023/01/17 09:13:39;;;;;;;7.57;6.70;;;;;;;1.83;100.00;93970.50;5079331;28;20197;-55
2023/01/17 09:16:05;;;;;;;9.47;6.77;;;;;;;1.76;100.00;93967.31;5075758;28;20158;-60
2023/01/17 09:18:32;;;;;;;6.17;5.60;;;;;;;1.84;100.00;93969.50;5079150;28;20644;-60
2023/01/17 09:21:00;;;;;;;5.70;5.30;;;;;;;1.86;100.00;93965.63;5079019;28;20173;-58
2023/01/17 09:23:28;;;;;;;5.20;4.80;;;;;;;1.84;100.00;93969.50;5063179;28;20193;-56
2023/01/17 09:25:55;;;;;;;5.60;5.03;;;;;;;1.83;100.00;93960.97;5078888;28;20208;-58
2023/01/17 09:28:22;;;;;;;6.13;5.63;;;;;;;1.95;100.00;93953.09;5079116;28;20185;-56
2023/01/17 09:30:47;;;;;;;5.73;5.27;;;;;;;2.03;100.00;93950.03;5078650;28;20181;-57
2023/01/17 09:33:13;;;;;;;6.03;5.43;;;;;;;1.98;100.00;93944.84;5078544;28;20205;-56
2023/01/17 09:35:38;;;;;;;5.90;5.40;;;;;;;1.95;100.00;93946.09;5078941;28;20627;-57
2023/01/17 09:38:04;;;;;;;5.50;5.00;;;;;;;1.98;100.00;93942.25;5078409;28;20193;-55
2023/01/17 09:40:30;;;;;;;5.83;5.33;;;;;;;1.94;100.00;93936.81;5079235;28;20215;-57
2023/01/17 09:43:02;;;;;;;5.23;4.83;;;;;;;1.83;100.00;93939.53;5078749;28;20205;-58
2023/01/17 09:45:30;;;;;;;7.13;5.60;;;;;;;1.71;100.00;93936.28;5078492;28;20205;-56
2023/01/17 09:47:58;;;;;;;7.63;6.93;;;;;;;1.63;100.00;93933.09;5078658;28;20664;-56
2023/01/17 09:50:58;;;;;;;7.43;5.87;;;;;;;1.79;100.00;93930.69;5078844;28;20603;-57
2023/01/17 09:53:25;;;;;;;6.83;6.10;;;;;;;1.93;100.00;93922.31;5065005;28;20221;-59
2023/01/17 09:56:05;;;;;;;6.47;5.97;;;;;;;1.97;100.00;93928.56;5078859;28;20179;-57
2023/01/17 09:58:45;;;;;;;7.23;6.13;;;;;;;2.02;100.00;93933.00;5076638;28;20228;-58
2023/01/17 10:01:45;;;;;;;6.63;6.10;;;;;;;1.94;100.00;93936.03;5078223;28;20252;-52
2023/01/17 10:04:30;;;;;;;7.17;6.43;;;;;;;1.82;100.00;93918.09;5025592;28;20274;-58
2023/01/17 10:07:23;;;;;;;7.97;5.40;;;;;;;1.83;100.00;93927.38;5073662;28;20193;-57
2023/01/17 10:10:08;;;;;;;6.10;5.50;;;;;;;1.84;100.00;93917.84;5078807;28;20173;-56
2023/01/17 10:13:03;;;;;;;5.53;5.23;;;;;;;1.99;100.00;93920.56;5078602;28;20338;-55
2023/01/17 10:15:39;;;;;;;5.00;4.70;;;;;;;1.95;98.12;93922.84;5074685;28;20193;-55
2023/01/17 10:18:55;;;;;;;5.60;5.20;;;;;;;2.03;98.02;93922.41;5076660;28;20173;-54
2023/01/17 10:22:01;;;;;;;5.47;5.10;;;;;;;2.09;100.00;93918.88;5024659;28;20200;-56
2023/01/17 10:24:57;;;;;;;9.67;8.93;;;;;;;2.14;93.69;93914.75;4989801;28;20232;-55
2023/01/17 10:27:33;;;;;;;6.90;6.50;;;;;;;2.19;93.23;93923.34;5061269;28;20169;-57
2023/01/17 10:30:03;;;;;;;6.00;5.60;;;;;;;2.40;95.51;93921.69;5075795;28;20180;-57
2023/01/17 10:32:32;;;;;;;5.07;4.67;;;;;;;2.38;89.39;93914.22;5068242;28;20627;-54
2023/01/17 10:35:04;;;;;;;4.47;4.27;;;;;;;2.48;92.22;93908.34;5075042;28;20169;-59
2023/01/17 10:37:41;;;;;;;4.57;4.30;;;;;;;2.34;87.67;93913.13;5059386;28;20177;-54
2023/01/17 10:40:40;;;;;;;4.20;3.90;;;;;;;2.53;87.03;93907.59;5056969;28;20200;-53
2023/01/17 10:43:14;;;;;;;4.17;3.67;;;;;;;2.46;82.96;93908.56;5069379;28;20209;-58
2023/01/17 10:45:47;;;;;;;8.27;7.77;;;;;;;2.56;85.21;93901.94;5075129;28;20215;-56
2023/01/17 10:48:40;;;;;;;10.33;9.63;;;;;;;2.61;84.24;93905.34;5075167;28;20161;-52
2023/01/17 10:51:41;;;;;;;7.47;6.77;;;;;;;2.67;81.20;93894.00;5057182;28;20641;-54
2023/01/17 10:54:28;;;;;;;6.67;6.27;;;;;;;2.78;77.99;93893.03;5073183;28;20196;-52
2023/01/17 10:56:54;;;;;;;4.80;4.53;;;;;;;2.97;79.66;93885.63;5074751;28;20189;-57
2023/01/17 11:01:51;;;;;;;11.27;10.67;;;;;;;2.97;73.51;93883.06;5073449;28;20236;-51
2023/01/17 11:04:35;;;;;;;4.47;4.23;;;;;;;3.07;75.39;93883.09;5074671;28;20178;-54
2023/01/17 11:07:19;;;;;;;3.53;3.33;;;;;;;3.07;73.13;93877.94;5073586;28;20173;-55
2023/01/17 11:09:50;;;;;;;6.53;6.23;;;;;;;3.08;71.71;93884.66;5060724;28;20181;-53
2023/01/17 11:12:29;;;;;;;6.07;5.73;;;;;;;3.05;70.72;93895.53;5074362;28;20295;-51
2023/01/17 11:15:05;;;;;;;6.77;6.27;;;;;;;3.10;72.02;93895.56;5074548;28;20168;-54
2023/01/17 11:17:32;;;;;;;5.03;4.80;;;;;;;3.14;69.52;93888.84;5074069;28;20193;-55
2023/01/17 11:20:18;;;;;;;3.67;3.40;;;;;;;3.04;68.01;93875.84;5074668;28;20230;-52
2023/01/17 11:23:05;;;;;;;4.03;3.60;;;;;;;3.08;67.79;93869.13;5074099;28;20711;-56
2023/01/17 11:25:33;;;;;;;4.40;4.10;;;;;;;3.09;67.00;93860.34;5073645;28;20657;-56
2023/01/17 11:28:16;;;;;;;4.20;4.00;;;;;;;3.27;66.63;93852.16;5073379;28;20169;-58
2023/01/17 11:30:54;;;;;;;4.10;3.90;;;;;;;2.96;67.66;93836.72;5073118;28;20598;-57
2023/01/17 11:33:52;;;;;;;4.10;3.90;;;;;;;3.08;67.39;93832.13;5074302;28;20662;-56
2023/01/17 11:36:26;;;;;;;5.97;5.57;;;;;;;2.98;66.45;93842.44;5074187;28;20170;-58
2023/01/17 11:39:03;;;;;;;5.63;5.37;;;;;;;3.21;64.81;93849.81;5073531;28;20246;-56
2023/01/17 11:41:37;;;;;;;5.73;5.43;;;;;;;3.20;64.59;93850.81;5074011;28;20660;-56
2023/01/17 11:44:33;;;;;;;6.00;5.70;;;;;;;3.11;63.77;93842.00;5074368;28;20289;-55
2023/01/17 11:47:11;;;;;;;5.47;5.17;;;;;;;3.19;66.83;93836.31;5063297;28;20550;-58
2023/01/17 11:49:41;;;;;;;5.60;5.40;;;;;;;3.06;65.10;93842.75;5074106;28;20184;-56
2023/01/17 11:52:08;;;;;;;7.53;7.10;;;;;;;3.07;66.09;93830.56;5073997;28;20220;-53
2023/01/17 11:54:39;;;;;;;7.10;6.70;;;;;;;3.14;65.85;93825.97;5073649;28;20704;-57
2023/01/17 11:57:07;;;;;;;6.27;5.97;;;;;;;3.29;65.32;93819.03;5074245;28;20604;-58
2023/01/17 11:59:37;;;;;;;5.83;5.53;;;;;;;2.93;63.75;93812.94;5072244;28;20272;-54
2023/01/17 12:02:47;;;;;;;8.00;4.73;;;;;;;3.04;64.64;93797.47;5071634;28;20233;-56
2023/01/17 12:05:27;;;;;;;4.67;4.47;;;;;;;2.92;65.52;93792.50;5073187;28;20248;-56
2023/01/17 12:08:08;;;;;;;4.67;4.27;;;;;;;3.16;64.02;93779.91;5073670;28;20663;-56
2023/01/17 12:10:52;;;;;;;4.20;4.00;;;;;;;2.88;63.23;93786.28;5074023;28;20181;-56
2023/01/17 12:16:39;;;;;;;7.23;6.83;;;;;;;2.96;65.73;93788.38;5073864;28;20185;-56
2023/01/17 12:19:21;;;;;;;5.80;5.37;;;;;;;2.80;64.94;93782.34;5072331;28;20299;-58
2023/01/17 12:22:20;;;;;;;4.77;4.47;;;;;;;2.69;64.04;93778.16;5073409;28;20208;-53
2023/01/17 12:25:13;;;;;;;5.03;4.73;;;;;;;2.75;66.00;93774.59;5068166;28;20561;-53
2023/01/17 12:28:15;;;;;;;5.60;5.30;;;;;;;3.06;66.76;93770.31;5067056;28;20542;-57
2023/01/17 12:31:08;;;;;;;5.47;5.17;;;;;;;2.88;64.58;93756.03;5073560;28;20181;-57
2023/01/17 12:34:17;;;;;;;5.47;5.17;;;;;;;2.83;64.36;93757.81;5073055;28;20711;-58
2023/01/17 12:37:07;;;;;;;5.70;5.50;;;;;;;2.80;66.10;93756.50;5072380;28;20169;-58
2023/01/17 12:39:39;;;;;;;4.37;4.17;;;;;;;4.61;100.00;93749.09;5067654;28;20184;-59
2023/01/17 12:42:31;;;;;;;4.47;4.03;;;;;;;4.43;64.62;93744.47;5071834;28;20205;-59
2023/01/17 12:45:19;;;;;;;5.40;4.87;;;;;;;3.64;64.73;93734.69;5068442;28;20280;-59
2023/01/17 12:47:47;;;;;;;4.07;3.80;;;;;;;3.04;65.41;93736.16;5055228;28;20642;-57
2023/01/17 12:50:31;;;;;;;4.90;4.03;;;;;;;2.96;65.63;93728.88;5072469;28;20176;-57
2023/01/17 12:53:17;;;;;;;3.87;3.77;;;;;;;2.99;66.47;93722.44;5072436;28;20285;-55
2023/01/17 12:55:49;;;;;;;5.67;5.47;;;;;;;3.17;66.90;93714.19;5072315;28;20177;-55
2023/01/17 12:58:21;;;;;;;6.07;5.60;;;;;;;3.24;67.77;93718.06;5072668;28;20723;-54
2023/01/17 13:00:53;;;;;;;5.20;4.80;;;;;;;3.25;66.84;93708.50;5070386;28;20232;-58
2023/01/17 13:03:47;;;;;;;5.63;5.33;;;;;;;3.04;65.82;93705.13;5073392;28;20205;-56
2023/01/17 13:06:28;;;;;;;3.60;3.40;;;;;;;2.79;65.38;93698.06;5073170;28;20609;-54
2023/01/17 13:08:57;;;;;;;3.13;3.03;;;;;;;2.89;66.57;93697.31;5073123;28;20541;-54
2023/01/17 13:11:37;;;;;;;4.13;3.30;;;;;;;2.93;65.87;93691.38;5072675;28;20185;-54
2023/01/17 13:14:07;;;;;;;3.40;3.20;;;;;;;2.90;65.77;93696.25;5071446;28;20272;-51
2023/01/17 13:16:40;;;;;;;3.47;3.37;;;;;;;2.82;64.76;93687.22;5072659;28;20496;-55
2023/01/17 13:19:29;;;;;;;4.30;4.10;;;;;;;2.56;65.48;93687.38;5072593;28;20246;-54
2023/01/17 13:21:55;;;;;;;3.57;3.27;;;;;;;2.59;65.84;93682.47;5056641;28;20209;-54
2023/01/17 13:24:29;;;;;;;4.30;4.07;;;;;;;2.64;63.98;93690.25;5071477;28;20228;-53